sensor_id;sensor_type;location;lat;lon;timestamp;temperature;humidity
6252;DHT22;3159;52.414;9.784;2023-03-31T00:00:43;12.40;99.90
6252;DHT22;3159;52.414;9.784;2023-03-31T00:03:11;12.40;99.90
6252;DHT22;3159;52.414;9.784;2023-03-31T00:05:38;12.40;99.90
6252;DHT22;3159;52.414;9.784;2023-03-31T00:08:05;12.40;99.90
6252;DHT22;3159;52.414;9.784;2023-03-31T00:10:35;12.30;99.90
6252;DHT22;3159;52.414;9.784;2023-03-31T00:13:01;12.40;99.90
6252;DHT22;3159;52.414;9.784;2023-03-31T00:15:29;12.40;99.90
6252;DHT22;3159;52.414;9.784;2023-03-31T00:17:56;12.40;99.90
6252;DHT22;3159;52.414;9.784;2023-03-31T00:20:24;12.40;99.90
6252;DHT22;3159;52.414;9.784;2023-03-31T00:22:51;12.40;99.90
6252;DHT22;3159;52.414;9.784;2023-03-31T00:25:19;12.50;99.90
6252;DHT22;3159;52.414;9.784;2023-03-31T00:27:47;12.40;99.90
6252;DHT22;3159;52.414;9.784;2023-03-31T00:30:17;12.40;99.90
6252;DHT22;3159;52.414;9.784;2023-03-31T00:32:44;12.40;99.90
6252;DHT22;3159;52.414;9.784;2023-03-31T00:35:11;12.30;99.90
6252;DHT22;3159;52.414;9.784;2023-03-31T00:37:38;12.40;99.90
6252;DHT22;3159;52.414;9.784;2023-03-31T00:40:06;12.30;99.90
6252;DHT22;3159;52.414;9.784;2023-03-31T00:42:38;12.20;99.90
6252;DHT22;3159;52.414;9.784;2023-03-31T00:45:24;12.20;99.90
6252;DHT22;3159;52.414;9.784;2023-03-31T00:47:54;12.30;99.90
6252;DHT22;3159;52.414;9.784;2023-03-31T00:50:25;12.20;99.90
6252;DHT22;3159;52.414;9.784;2023-03-31T00:52:55;12.30;99.90
6252;DHT22;3159;52.414;9.784;2023-03-31T00:55:29;12.20;99.90
6252;DHT22;3159;52.414;9.784;2023-03-31T00:57:58;12.20;99.90
6252;DHT22;3159;52.414;9.784;2023-03-31T01:00:27;12.20;99.90
6252;DHT22;3159;52.414;9.784;2023-03-31T01:02:57;12.30;99.90
6252;DHT22;3159;52.414;9.784;2023-03-31T01:05:29;12.30;99.90
6252;DHT22;3159;52.414;9.784;2023-03-31T01:07:58;12.30;99.90
6252;DHT22;3159;52.414;9.784;2023-03-31T01:10:27;12.20;99.90
6252;DHT22;3159;52.414;9.784;2023-03-31T01:12:56;12.30;99.90
6252;DHT22;3159;52.414;9.784;2023-03-31T01:15:23;12.20;99.90
6252;DHT22;3159;52.414;9.784;2023-03-31T01:17:52;12.10;99.90
6252;DHT22;3159;52.414;9.784;2023-03-31T01:20:26;12.10;99.90
6252;DHT22;3159;52.414;9.784;2023-03-31T01:26:32;12.10;99.90
6252;DHT22;3159;52.414;9.784;2023-03-31T01:29:09;12.10;99.90
6252;DHT22;3159;52.414;9.784;2023-03-31T01:32:12;12.10;99.90
6252;DHT22;3159;52.414;9.784;2023-03-31T01:40:48;12.10;99.90
6252;DHT22;3159;52.414;9.784;2023-03-31T01:43:22;12.10;99.90
6252;DHT22;3159;52.414;9.784;2023-03-31T01:45:54;12.10;99.90
6252;DHT22;3159;52.414;9.784;2023-03-31T01:48:31;12.10;99.90
6252;DHT22;3159;52.414;9.784;2023-03-31T01:51:01;12.00;99.90
6252;DHT22;3159;52.414;9.784;2023-03-31T01:53:32;12.00;99.90
6252;DHT22;3159;52.414;9.784;2023-03-31T01:56:04;12.00;99.90
6252;DHT22;3159;52.414;9.784;2023-03-31T01:58:36;12.00;99.90
6252;DHT22;3159;52.414;9.784;2023-03-31T02:01:09;12.00;99.90
6252;DHT22;3159;52.414;9.784;2023-03-31T02:03:44;12.10;99.90
6252;DHT22;3159;52.414;9.784;2023-03-31T02:06:16;12.10;99.90
6252;DHT22;3159;52.414;9.784;2023-03-31T02:08:48;12.10;99.90
6252;DHT22;3159;52.414;9.784;2023-03-31T02:11:17;12.00;99.90
6252;DHT22;3159;52.414;9.784;2023-03-31T02:13:46;12.00;99.90
6252;DHT22;3159;52.414;9.784;2023-03-31T02:16:18;11.90;99.90
6252;DHT22;3159;52.414;9.784;2023-03-31T02:18:50;11.90;99.90
6252;DHT22;3159;52.414;9.784;2023-03-31T02:21:19;11.90;99.90
6252;DHT22;3159;52.414;9.784;2023-03-31T02:23:48;11.90;99.90
6252;DHT22;3159;52.414;9.784;2023-03-31T02:26:19;12.00;99.90
6252;DHT22;3159;52.414;9.784;2023-03-31T02:28:49;12.10;99.90
6252;DHT22;3159;52.414;9.784;2023-03-31T02:31:25;12.00;99.90
6252;DHT22;3159;52.414;9.784;2023-03-31T02:33:53;12.00;99.90
6252;DHT22;3159;52.414;9.784;2023-03-31T02:36:20;11.90;99.90
6252;DHT22;3159;52.414;9.784;2023-03-31T02:38:51;11.90;99.90
6252;DHT22;3159;52.414;9.784;2023-03-31T02:41:21;12.00;99.90
6252;DHT22;3159;52.414;9.784;2023-03-31T02:43:48;12.00;99.90
6252;DHT22;3159;52.414;9.784;2023-03-31T02:46:15;11.90;99.90
6252;DHT22;3159;52.414;9.784;2023-03-31T02:48:44;11.90;99.90
6252;DHT22;3159;52.414;9.784;2023-03-31T02:51:28;11.90;99.90
6252;DHT22;3159;52.414;9.784;2023-03-31T02:54:14;12.00;99.90
6252;DHT22;3159;52.414;9.784;2023-03-31T02:56:58;12.00;99.90
6252;DHT22;3159;52.414;9.784;2023-03-31T02:59:40;11.90;99.90
6252;DHT22;3159;52.414;9.784;2023-03-31T03:02:17;12.00;99.90
6252;DHT22;3159;52.414;9.784;2023-03-31T03:05:07;12.00;99.90
6252;DHT22;3159;52.414;9.784;2023-03-31T03:07:44;12.00;99.90
6252;DHT22;3159;52.414;9.784;2023-03-31T03:10:16;12.00;99.90
6252;DHT22;3159;52.414;9.784;2023-03-31T03:12:52;12.00;99.90
6252;DHT22;3159;52.414;9.784;2023-03-31T03:15:25;11.90;99.90
6252;DHT22;3159;52.414;9.784;2023-03-31T03:17:54;11.90;99.90
6252;DHT22;3159;52.414;9.784;2023-03-31T03:20:22;11.90;99.90
6252;DHT22;3159;52.414;9.784;2023-03-31T03:22:49;12.00;99.90
6252;DHT22;3159;52.414;9.784;2023-03-31T03:25:16;12.00;99.90
6252;DHT22;3159;52.414;9.784;2023-03-31T03:27:46;11.90;99.90
6252;DHT22;3159;52.414;9.784;2023-03-31T03:30:13;12.00;99.90
6252;DHT22;3159;52.414;9.784;2023-03-31T03:32:40;11.80;99.90
6252;DHT22;3159;52.414;9.784;2023-03-31T03:35:08;11.90;99.90
6252;DHT22;3159;52.414;9.784;2023-03-31T03:37:35;11.90;99.90
6252;DHT22;3159;52.414;9.784;2023-03-31T03:40:02;11.90;99.90
6252;DHT22;3159;52.414;9.784;2023-03-31T03:42:30;11.90;99.90
6252;DHT22;3159;52.414;9.784;2023-03-31T03:44:58;11.90;99.90
6252;DHT22;3159;52.414;9.784;2023-03-31T03:47:25;11.90;99.90
6252;DHT22;3159;52.414;9.784;2023-03-31T03:49:52;11.90;99.90
6252;DHT22;3159;52.414;9.784;2023-03-31T03:52:19;11.80;99.90
6252;DHT22;3159;52.414;9.784;2023-03-31T03:54:46;11.90;99.90
6252;DHT22;3159;52.414;9.784;2023-03-31T03:57:13;11.90;99.90
6252;DHT22;3159;52.414;9.784;2023-03-31T03:59:41;11.80;99.90
6252;DHT22;3159;52.414;9.784;2023-03-31T04:02:09;11.80;99.90
6252;DHT22;3159;52.414;9.784;2023-03-31T04:04:36;12.00;99.90
6252;DHT22;3159;52.414;9.784;2023-03-31T04:07:03;12.00;99.90
6252;DHT22;3159;52.414;9.784;2023-03-31T04:09:30;11.80;99.90
6252;DHT22;3159;52.414;9.784;2023-03-31T04:11:56;12.00;99.90
6252;DHT22;3159;52.414;9.784;2023-03-31T04:14:23;11.90;99.90
6252;DHT22;3159;52.414;9.784;2023-03-31T04:16:50;11.90;99.90
6252;DHT22;3159;52.414;9.784;2023-03-31T04:19:22;11.80;99.90
6252;DHT22;3159;52.414;9.784;2023-03-31T04:21:50;11.80;99.90
6252;DHT22;3159;52.414;9.784;2023-03-31T04:24:23;11.80;99.90
6252;DHT22;3159;52.414;9.784;2023-03-31T04:26:55;11.80;99.90
6252;DHT22;3159;52.414;9.784;2023-03-31T04:29:22;11.70;99.90
6252;DHT22;3159;52.414;9.784;2023-03-31T04:31:51;11.60;99.90
6252;DHT22;3159;52.414;9.784;2023-03-31T04:34:18;11.70;99.90
6252;DHT22;3159;52.414;9.784;2023-03-31T04:36:52;11.50;99.90
6252;DHT22;3159;52.414;9.784;2023-03-31T04:39:21;11.40;99.90
6252;DHT22;3159;52.414;9.784;2023-03-31T04:41:51;11.40;99.90
6252;DHT22;3159;52.414;9.784;2023-03-31T04:44:18;11.40;99.90
6252;DHT22;3159;52.414;9.784;2023-03-31T04:46:45;11.50;99.90
6252;DHT22;3159;52.414;9.784;2023-03-31T04:49:11;11.50;99.90
6252;DHT22;3159;52.414;9.784;2023-03-31T04:51:38;11.50;99.90
6252;DHT22;3159;52.414;9.784;2023-03-31T04:54:06;11.50;99.90
6252;DHT22;3159;52.414;9.784;2023-03-31T04:56:33;11.60;99.90
6252;DHT22;3159;52.414;9.784;2023-03-31T04:59:00;11.60;99.90
6252;DHT22;3159;52.414;9.784;2023-03-31T05:01:28;11.60;99.90
6252;DHT22;3159;52.414;9.784;2023-03-31T05:03:57;11.70;99.90
6252;DHT22;3159;52.414;9.784;2023-03-31T05:06:24;11.60;99.90
6252;DHT22;3159;52.414;9.784;2023-03-31T05:08:51;11.70;99.90
6252;DHT22;3159;52.414;9.784;2023-03-31T05:11:19;11.80;99.90
6252;DHT22;3159;52.414;9.784;2023-03-31T05:13:47;11.70;99.90
6252;DHT22;3159;52.414;9.784;2023-03-31T05:16:14;11.60;99.90
6252;DHT22;3159;52.414;9.784;2023-03-31T05:18:41;11.60;99.90
6252;DHT22;3159;52.414;9.784;2023-03-31T05:21:13;11.60;99.90
6252;DHT22;3159;52.414;9.784;2023-03-31T05:23:40;11.70;99.90
6252;DHT22;3159;52.414;9.784;2023-03-31T05:26:07;11.70;99.90
6252;DHT22;3159;52.414;9.784;2023-03-31T05:28:36;11.70;99.90
6252;DHT22;3159;52.414;9.784;2023-03-31T05:31:04;11.80;99.90
6252;DHT22;3159;52.414;9.784;2023-03-31T05:33:32;11.60;99.90
6252;DHT22;3159;52.414;9.784;2023-03-31T05:35:59;11.60;99.90
6252;DHT22;3159;52.414;9.784;2023-03-31T05:38:26;11.60;99.90
6252;DHT22;3159;52.414;9.784;2023-03-31T05:40:56;11.50;99.90
6252;DHT22;3159;52.414;9.784;2023-03-31T05:43:22;11.50;99.90
6252;DHT22;3159;52.414;9.784;2023-03-31T05:45:51;11.40;99.90
6252;DHT22;3159;52.414;9.784;2023-03-31T05:48:17;11.40;99.90
6252;DHT22;3159;52.414;9.784;2023-03-31T05:50:45;11.50;99.90
6252;DHT22;3159;52.414;9.784;2023-03-31T05:53:12;11.50;99.90
6252;DHT22;3159;52.414;9.784;2023-03-31T05:55:39;11.50;99.90
6252;DHT22;3159;52.414;9.784;2023-03-31T05:58:06;11.50;99.90
6252;DHT22;3159;52.414;9.784;2023-03-31T06:00:33;11.50;99.90
6252;DHT22;3159;52.414;9.784;2023-03-31T06:03:02;11.50;99.90
6252;DHT22;3159;52.414;9.784;2023-03-31T06:05:28;11.40;99.90
6252;DHT22;3159;52.414;9.784;2023-03-31T06:07:57;11.50;99.90
6252;DHT22;3159;52.414;9.784;2023-03-31T06:10:23;11.50;99.90
6252;DHT22;3159;52.414;9.784;2023-03-31T06:12:50;11.50;99.90
6252;DHT22;3159;52.414;9.784;2023-03-31T06:15:17;11.60;99.90
6252;DHT22;3159;52.414;9.784;2023-03-31T06:17:44;11.40;99.90
6252;DHT22;3159;52.414;9.784;2023-03-31T06:20:12;11.50;99.90
6252;DHT22;3159;52.414;9.784;2023-03-31T06:22:40;11.50;99.90
6252;DHT22;3159;52.414;9.784;2023-03-31T06:25:07;11.60;99.90
6252;DHT22;3159;52.414;9.784;2023-03-31T06:27:34;11.60;99.90
6252;DHT22;3159;52.414;9.784;2023-03-31T06:30:01;11.60;99.90
6252;DHT22;3159;52.414;9.784;2023-03-31T06:32:28;11.60;99.90
6252;DHT22;3159;52.414;9.784;2023-03-31T06:34:55;11.50;99.90
6252;DHT22;3159;52.414;9.784;2023-03-31T06:37:23;11.50;99.90
6252;DHT22;3159;52.414;9.784;2023-03-31T06:39:50;11.40;99.90
6252;DHT22;3159;52.414;9.784;2023-03-31T06:42:16;11.50;99.90
6252;DHT22;3159;52.414;9.784;2023-03-31T06:44:43;11.50;99.90
6252;DHT22;3159;52.414;9.784;2023-03-31T06:47:10;11.50;99.90
6252;DHT22;3159;52.414;9.784;2023-03-31T06:49:37;11.50;99.90
6252;DHT22;3159;52.414;9.784;2023-03-31T06:52:04;11.50;99.90
6252;DHT22;3159;52.414;9.784;2023-03-31T06:54:32;11.60;99.90
6252;DHT22;3159;52.414;9.784;2023-03-31T06:56:59;11.60;99.90
6252;DHT22;3159;52.414;9.784;2023-03-31T06:59:26;11.50;99.90
6252;DHT22;3159;52.414;9.784;2023-03-31T07:01:52;11.60;99.90
6252;DHT22;3159;52.414;9.784;2023-03-31T07:04:19;11.40;99.90
6252;DHT22;3159;52.414;9.784;2023-03-31T07:06:46;11.30;99.90
6252;DHT22;3159;52.414;9.784;2023-03-31T07:09:13;11.40;99.90
6252;DHT22;3159;52.414;9.784;2023-03-31T07:11:41;11.50;99.90
6252;DHT22;3159;52.414;9.784;2023-03-31T07:14:08;11.40;99.90
6252;DHT22;3159;52.414;9.784;2023-03-31T07:16:35;11.50;99.90
6252;DHT22;3159;52.414;9.784;2023-03-31T07:19:02;11.40;99.90
6252;DHT22;3159;52.414;9.784;2023-03-31T07:21:30;11.50;99.90
6252;DHT22;3159;52.414;9.784;2023-03-31T07:23:57;11.50;99.90
6252;DHT22;3159;52.414;9.784;2023-03-31T07:26:24;11.50;99.90
6252;DHT22;3159;52.414;9.784;2023-03-31T07:28:52;11.60;99.90
6252;DHT22;3159;52.414;9.784;2023-03-31T07:31:22;11.50;99.90
6252;DHT22;3159;52.414;9.784;2023-03-31T07:33:49;11.50;99.90
6252;DHT22;3159;52.414;9.784;2023-03-31T07:36:16;11.50;99.90
6252;DHT22;3159;52.414;9.784;2023-03-31T07:38:44;11.40;99.90
6252;DHT22;3159;52.414;9.784;2023-03-31T07:41:15;11.40;99.90
6252;DHT22;3159;52.414;9.784;2023-03-31T07:43:43;11.50;99.90
6252;DHT22;3159;52.414;9.784;2023-03-31T07:46:16;11.50;99.90
6252;DHT22;3159;52.414;9.784;2023-03-31T07:48:44;11.50;99.90
6252;DHT22;3159;52.414;9.784;2023-03-31T07:51:12;11.60;99.90
6252;DHT22;3159;52.414;9.784;2023-03-31T07:53:39;11.50;99.90
6252;DHT22;3159;52.414;9.784;2023-03-31T07:56:06;11.60;99.90
6252;DHT22;3159;52.414;9.784;2023-03-31T07:58:33;11.50;99.90
6252;DHT22;3159;52.414;9.784;2023-03-31T08:01:00;11.50;99.90
6252;DHT22;3159;52.414;9.784;2023-03-31T08:03:28;11.40;99.90
6252;DHT22;3159;52.414;9.784;2023-03-31T08:05:56;11.50;99.90
6252;DHT22;3159;52.414;9.784;2023-03-31T08:08:23;11.40;99.90
6252;DHT22;3159;52.414;9.784;2023-03-31T08:10:51;11.50;99.90
6252;DHT22;3159;52.414;9.784;2023-03-31T08:13:18;11.60;99.90
6252;DHT22;3159;52.414;9.784;2023-03-31T08:15:44;11.70;99.90
6252;DHT22;3159;52.414;9.784;2023-03-31T08:18:11;11.60;99.90
6252;DHT22;3159;52.414;9.784;2023-03-31T08:20:39;11.70;99.90
6252;DHT22;3159;52.414;9.784;2023-03-31T08:23:06;11.60;99.90
6252;DHT22;3159;52.414;9.784;2023-03-31T08:25:36;11.60;99.90
6252;DHT22;3159;52.414;9.784;2023-03-31T08:28:03;11.60;99.90
6252;DHT22;3159;52.414;9.784;2023-03-31T08:30:31;11.60;99.90
6252;DHT22;3159;52.414;9.784;2023-03-31T08:32:58;11.70;99.90
6252;DHT22;3159;52.414;9.784;2023-03-31T08:35:26;11.70;99.90
6252;DHT22;3159;52.414;9.784;2023-03-31T08:37:54;11.80;99.90
6252;DHT22;3159;52.414;9.784;2023-03-31T08:40:23;11.70;99.90
6252;DHT22;3159;52.414;9.784;2023-03-31T08:42:53;11.70;99.90
6252;DHT22;3159;52.414;9.784;2023-03-31T08:45:23;11.80;99.90
6252;DHT22;3159;52.414;9.784;2023-03-31T08:47:54;11.80;99.90
6252;DHT22;3159;52.414;9.784;2023-03-31T08:50:24;11.90;99.90
6252;DHT22;3159;52.414;9.784;2023-03-31T08:52:56;11.90;99.90
6252;DHT22;3159;52.414;9.784;2023-03-31T08:55:29;11.80;99.90
6252;DHT22;3159;52.414;9.784;2023-03-31T08:58:00;11.90;99.90
6252;DHT22;3159;52.414;9.784;2023-03-31T09:00:31;12.00;99.90
6252;DHT22;3159;52.414;9.784;2023-03-31T09:03:04;11.90;99.90
6252;DHT22;3159;52.414;9.784;2023-03-31T09:05:45;11.90;99.90
6252;DHT22;3159;52.414;9.784;2023-03-31T09:08:30;12.00;99.90
6252;DHT22;3159;52.414;9.784;2023-03-31T09:11:13;12.00;99.90
6252;DHT22;3159;52.414;9.784;2023-03-31T09:14:20;11.90;99.90
6252;DHT22;3159;52.414;9.784;2023-03-31T09:16:56;12.00;99.90
6252;DHT22;3159;52.414;9.784;2023-03-31T09:19:33;11.90;99.90
6252;DHT22;3159;52.414;9.784;2023-03-31T09:22:02;12.00;99.90
6252;DHT22;3159;52.414;9.784;2023-03-31T09:24:44;12.00;99.90
6252;DHT22;3159;52.414;9.784;2023-03-31T09:27:14;11.80;99.90
6252;DHT22;3159;52.414;9.784;2023-03-31T09:29:43;11.70;99.90
6252;DHT22;3159;52.414;9.784;2023-03-31T09:32:14;11.80;99.90
6252;DHT22;3159;52.414;9.784;2023-03-31T09:34:42;11.80;99.90
6252;DHT22;3159;52.414;9.784;2023-03-31T09:37:11;11.80;99.90
6252;DHT22;3159;52.414;9.784;2023-03-31T09:39:39;11.90;99.90
6252;DHT22;3159;52.414;9.784;2023-03-31T09:42:09;11.80;99.90
6252;DHT22;3159;52.414;9.784;2023-03-31T09:44:39;11.80;99.90
6252;DHT22;3159;52.414;9.784;2023-03-31T09:47:11;11.80;99.90
6252;DHT22;3159;52.414;9.784;2023-03-31T09:49:39;11.80;99.90
6252;DHT22;3159;52.414;9.784;2023-03-31T09:52:26;11.80;99.90
6252;DHT22;3159;52.414;9.784;2023-03-31T09:54:58;11.70;99.90
6252;DHT22;3159;52.414;9.784;2023-03-31T09:57:27;11.80;99.90
6252;DHT22;3159;52.414;9.784;2023-03-31T10:00:02;11.70;99.90
6252;DHT22;3159;52.414;9.784;2023-03-31T10:02:36;11.70;99.90
6252;DHT22;3159;52.414;9.784;2023-03-31T10:05:06;11.80;99.90
6252;DHT22;3159;52.414;9.784;2023-03-31T10:07:43;11.80;99.90
6252;DHT22;3159;52.414;9.784;2023-03-31T10:10:31;11.80;99.90
6252;DHT22;3159;52.414;9.784;2023-03-31T10:12:59;11.80;99.90
6252;DHT22;3159;52.414;9.784;2023-03-31T10:15:27;11.70;99.90
6252;DHT22;3159;52.414;9.784;2023-03-31T10:17:57;11.70;99.90
6252;DHT22;3159;52.414;9.784;2023-03-31T10:20:31;11.70;99.90
6252;DHT22;3159;52.414;9.784;2023-03-31T10:23:02;11.70;99.90
6252;DHT22;3159;52.414;9.784;2023-03-31T10:25:32;11.70;99.90
6252;DHT22;3159;52.414;9.784;2023-03-31T10:28:01;11.70;99.90
6252;DHT22;3159;52.414;9.784;2023-03-31T10:30:33;11.50;99.90
6252;DHT22;3159;52.414;9.784;2023-03-31T10:33:05;11.60;99.90
6252;DHT22;3159;52.414;9.784;2023-03-31T10:35:34;11.60;99.90
6252;DHT22;3159;52.414;9.784;2023-03-31T10:38:04;11.60;99.90
6252;DHT22;3159;52.414;9.784;2023-03-31T10:40:34;11.70;99.90
6252;DHT22;3159;52.414;9.784;2023-03-31T10:43:04;11.60;99.90
6252;DHT22;3159;52.414;9.784;2023-03-31T10:45:43;11.60;99.90
6252;DHT22;3159;52.414;9.784;2023-03-31T10:48:18;11.60;99.90
6252;DHT22;3159;52.414;9.784;2023-03-31T10:50:46;11.80;99.90
6252;DHT22;3159;52.414;9.784;2023-03-31T10:53:14;11.60;99.90
6252;DHT22;3159;52.414;9.784;2023-03-31T10:55:50;11.60;99.90
6252;DHT22;3159;52.414;9.784;2023-03-31T10:58:26;11.50;99.90
6252;DHT22;3159;52.414;9.784;2023-03-31T11:01:05;11.40;99.90
6252;DHT22;3159;52.414;9.784;2023-03-31T11:03:51;11.40;99.90
6252;DHT22;3159;52.414;9.784;2023-03-31T11:06:25;11.40;99.90
6252;DHT22;3159;52.414;9.784;2023-03-31T11:09:02;11.40;99.90
6252;DHT22;3159;52.414;9.784;2023-03-31T11:11:47;11.30;99.90
6252;DHT22;3159;52.414;9.784;2023-03-31T11:14:21;11.40;99.90
6252;DHT22;3159;52.414;9.784;2023-03-31T11:16:53;11.50;99.90
6252;DHT22;3159;52.414;9.784;2023-03-31T11:19:30;11.60;99.90
6252;DHT22;3159;52.414;9.784;2023-03-31T11:22:06;11.50;99.90
6252;DHT22;3159;52.414;9.784;2023-03-31T11:25:03;11.60;99.90
6252;DHT22;3159;52.414;9.784;2023-03-31T11:30:27;11.40;99.90
6252;DHT22;3159;52.414;9.784;2023-03-31T11:33:04;11.40;99.90
6252;DHT22;3159;52.414;9.784;2023-03-31T11:35:44;11.40;99.90
6252;DHT22;3159;52.414;9.784;2023-03-31T11:38:29;11.40;99.90
6252;DHT22;3159;52.414;9.784;2023-03-31T11:41:01;11.50;99.90
6252;DHT22;3159;52.414;9.784;2023-03-31T11:43:34;11.60;99.90
6252;DHT22;3159;52.414;9.784;2023-03-31T11:46:05;11.60;99.90
6252;DHT22;3159;52.414;9.784;2023-03-31T11:48:37;11.40;99.90
6252;DHT22;3159;52.414;9.784;2023-03-31T11:51:12;11.40;99.90
6252;DHT22;3159;52.414;9.784;2023-03-31T11:53:41;11.30;99.90
6252;DHT22;3159;52.414;9.784;2023-03-31T11:56:10;11.50;99.90
6252;DHT22;3159;52.414;9.784;2023-03-31T11:58:43;11.50;99.90
6252;DHT22;3159;52.414;9.784;2023-03-31T12:01:16;11.60;99.90
6252;DHT22;3159;52.414;9.784;2023-03-31T12:03:51;11.70;99.90
6252;DHT22;3159;52.414;9.784;2023-03-31T12:06:20;11.60;99.90
6252;DHT22;3159;52.414;9.784;2023-03-31T12:08:56;11.70;99.90
6252;DHT22;3159;52.414;9.784;2023-03-31T12:11:30;11.50;99.90
6252;DHT22;3159;52.414;9.784;2023-03-31T12:14:07;11.40;99.90
6252;DHT22;3159;52.414;9.784;2023-03-31T12:16:39;11.60;99.90
6252;DHT22;3159;52.414;9.784;2023-03-31T12:19:12;11.50;99.90
6252;DHT22;3159;52.414;9.784;2023-03-31T12:21:46;11.70;99.90
6252;DHT22;3159;52.414;9.784;2023-03-31T12:24:13;11.70;99.90
6252;DHT22;3159;52.414;9.784;2023-03-31T12:26:48;11.90;99.90
6252;DHT22;3159;52.414;9.784;2023-03-31T12:29:26;11.90;99.90
6252;DHT22;3159;52.414;9.784;2023-03-31T12:31:57;11.80;99.90
6252;DHT22;3159;52.414;9.784;2023-03-31T12:34:25;12.00;99.90
6252;DHT22;3159;52.414;9.784;2023-03-31T12:37:06;12.10;99.90
6252;DHT22;3159;52.414;9.784;2023-03-31T12:39:44;12.20;99.90
6252;DHT22;3159;52.414;9.784;2023-03-31T12:42:35;12.10;99.90
6252;DHT22;3159;52.414;9.784;2023-03-31T12:45:12;12.30;99.90
6252;DHT22;3159;52.414;9.784;2023-03-31T12:47:55;12.20;99.90
6252;DHT22;3159;52.414;9.784;2023-03-31T12:50:51;12.40;99.90
6252;DHT22;3159;52.414;9.784;2023-03-31T12:53:25;12.30;99.90
6252;DHT22;3159;52.414;9.784;2023-03-31T12:55:55;12.20;99.90
6252;DHT22;3159;52.414;9.784;2023-03-31T12:58:43;12.30;99.90
6252;DHT22;3159;52.414;9.784;2023-03-31T13:01:14;12.30;99.90
6252;DHT22;3159;52.414;9.784;2023-03-31T13:03:43;12.30;99.90
6252;DHT22;3159;52.414;9.784;2023-03-31T13:09:40;12.50;99.90
6252;DHT22;3159;52.414;9.784;2023-03-31T13:12:12;12.60;99.90
6252;DHT22;3159;52.414;9.784;2023-03-31T13:14:42;12.70;99.90
6252;DHT22;3159;52.414;9.784;2023-03-31T13:17:21;12.80;99.90
6252;DHT22;3159;52.414;9.784;2023-03-31T13:19:49;12.70;99.90
6252;DHT22;3159;52.414;9.784;2023-03-31T13:22:29;12.80;99.90
6252;DHT22;3159;52.414;9.784;2023-03-31T13:25:32;12.70;99.90
6252;DHT22;3159;52.414;9.784;2023-03-31T13:30:57;13.00;99.90
6252;DHT22;3159;52.414;9.784;2023-03-31T13:33:31;13.00;99.90
6252;DHT22;3159;52.414;9.784;2023-03-31T13:36:22;13.00;99.90
6252;DHT22;3159;52.414;9.784;2023-03-31T13:39:03;12.80;99.90
6252;DHT22;3159;52.414;9.784;2023-03-31T13:41:40;12.70;99.90
6252;DHT22;3159;52.414;9.784;2023-03-31T13:53:31;12.80;99.90
6252;DHT22;3159;52.414;9.784;2023-03-31T13:56:11;12.70;99.90
6252;DHT22;3159;52.414;9.784;2023-03-31T13:59:10;12.50;99.90
6252;DHT22;3159;52.414;9.784;2023-03-31T14:02:22;12.60;99.90
6252;DHT22;3159;52.414;9.784;2023-03-31T14:05:24;12.60;99.90
6252;DHT22;3159;52.414;9.784;2023-03-31T14:07:55;12.60;99.90
6252;DHT22;3159;52.414;9.784;2023-03-31T14:10:29;12.80;99.90
6252;DHT22;3159;52.414;9.784;2023-03-31T14:13:07;12.80;99.90
6252;DHT22;3159;52.414;9.784;2023-03-31T14:15:35;12.70;99.90
6252;DHT22;3159;52.414;9.784;2023-03-31T14:18:03;12.50;99.90
6252;DHT22;3159;52.414;9.784;2023-03-31T14:20:34;12.60;99.90
6252;DHT22;3159;52.414;9.784;2023-03-31T14:23:14;12.60;99.90
6252;DHT22;3159;52.414;9.784;2023-03-31T14:25:49;12.60;99.90
6252;DHT22;3159;52.414;9.784;2023-03-31T14:28:29;12.70;99.90
6252;DHT22;3159;52.414;9.784;2023-03-31T14:31:10;12.60;99.90
6252;DHT22;3159;52.414;9.784;2023-03-31T14:33:45;12.50;99.90
6252;DHT22;3159;52.414;9.784;2023-03-31T14:36:18;12.70;99.90
6252;DHT22;3159;52.414;9.784;2023-03-31T14:38:48;12.80;99.90
6252;DHT22;3159;52.414;9.784;2023-03-31T14:41:17;12.80;99.90
6252;DHT22;3159;52.414;9.784;2023-03-31T14:43:48;12.90;99.90
6252;DHT22;3159;52.414;9.784;2023-03-31T14:46:18;12.80;99.90
6252;DHT22;3159;52.414;9.784;2023-03-31T14:48:47;12.90;99.90
6252;DHT22;3159;52.414;9.784;2023-03-31T14:51:17;12.90;99.90
6252;DHT22;3159;52.414;9.784;2023-03-31T14:53:44;13.00;99.90
6252;DHT22;3159;52.414;9.784;2023-03-31T14:56:14;12.90;99.90
6252;DHT22;3159;52.414;9.784;2023-03-31T14:58:44;13.00;99.90
6252;DHT22;3159;52.414;9.784;2023-03-31T15:01:16;13.00;99.90
6252;DHT22;3159;52.414;9.784;2023-03-31T15:03:44;13.00;99.90
6252;DHT22;3159;52.414;9.784;2023-03-31T15:06:12;12.90;99.90
6252;DHT22;3159;52.414;9.784;2023-03-31T15:08:40;12.90;99.90
6252;DHT22;3159;52.414;9.784;2023-03-31T15:11:08;12.80;99.90
6252;DHT22;3159;52.414;9.784;2023-03-31T15:13:41;12.80;99.90
6252;DHT22;3159;52.414;9.784;2023-03-31T15:16:26;12.80;99.90
6252;DHT22;3159;52.414;9.784;2023-03-31T15:18:53;12.70;99.90
6252;DHT22;3159;52.414;9.784;2023-03-31T15:21:22;12.80;99.90
6252;DHT22;3159;52.414;9.784;2023-03-31T15:23:50;12.70;99.90
6252;DHT22;3159;52.414;9.784;2023-03-31T15:26:19;12.90;99.90
6252;DHT22;3159;52.414;9.784;2023-03-31T15:28:52;12.90;99.90
6252;DHT22;3159;52.414;9.784;2023-03-31T15:31:21;13.10;99.90
6252;DHT22;3159;52.414;9.784;2023-03-31T15:33:49;13.10;99.90
6252;DHT22;3159;52.414;9.784;2023-03-31T15:36:16;13.20;99.90
6252;DHT22;3159;52.414;9.784;2023-03-31T15:38:43;13.20;99.90
6252;DHT22;3159;52.414;9.784;2023-03-31T15:41:11;13.20;99.90
6252;DHT22;3159;52.414;9.784;2023-03-31T15:43:45;12.70;99.90
6252;DHT22;3159;52.414;9.784;2023-03-31T15:46:18;12.80;99.90
6252;DHT22;3159;52.414;9.784;2023-03-31T15:48:50;12.90;99.90
6252;DHT22;3159;52.414;9.784;2023-03-31T15:51:23;12.50;99.90
6252;DHT22;3159;52.414;9.784;2023-03-31T15:53:51;12.40;99.90
6252;DHT22;3159;52.414;9.784;2023-03-31T15:56:27;12.60;99.90
6252;DHT22;3159;52.414;9.784;2023-03-31T15:58:56;12.70;99.90
6252;DHT22;3159;52.414;9.784;2023-03-31T16:01:27;12.80;99.90
6252;DHT22;3159;52.414;9.784;2023-03-31T16:03:57;12.80;99.90
6252;DHT22;3159;52.414;9.784;2023-03-31T16:06:32;12.70;99.90
6252;DHT22;3159;52.414;9.784;2023-03-31T16:09:04;12.50;99.90
6252;DHT22;3159;52.414;9.784;2023-03-31T16:11:36;12.40;99.90
6252;DHT22;3159;52.414;9.784;2023-03-31T16:14:07;12.40;99.90
6252;DHT22;3159;52.414;9.784;2023-03-31T16:16:37;12.50;99.90
6252;DHT22;3159;52.414;9.784;2023-03-31T16:19:07;12.50;99.90
6252;DHT22;3159;52.414;9.784;2023-03-31T16:21:39;12.60;99.90
6252;DHT22;3159;52.414;9.784;2023-03-31T16:24:07;12.60;99.90
6252;DHT22;3159;52.414;9.784;2023-03-31T16:26:35;12.60;99.90
6252;DHT22;3159;52.414;9.784;2023-03-31T16:29:03;12.80;99.90
6252;DHT22;3159;52.414;9.784;2023-03-31T16:31:33;12.80;99.90
6252;DHT22;3159;52.414;9.784;2023-03-31T16:34:02;12.70;99.90
6252;DHT22;3159;52.414;9.784;2023-03-31T16:36:29;12.70;99.90
6252;DHT22;3159;52.414;9.784;2023-03-31T16:38:56;12.70;99.90
6252;DHT22;3159;52.414;9.784;2023-03-31T16:41:26;12.80;99.90
6252;DHT22;3159;52.414;9.784;2023-03-31T16:43:53;12.70;99.90
6252;DHT22;3159;52.414;9.784;2023-03-31T16:46:20;12.70;99.90
6252;DHT22;3159;52.414;9.784;2023-03-31T16:48:47;12.60;99.90
6252;DHT22;3159;52.414;9.784;2023-03-31T16:51:16;12.60;99.90
6252;DHT22;3159;52.414;9.784;2023-03-31T16:53:44;12.60;99.90
6252;DHT22;3159;52.414;9.784;2023-03-31T16:56:12;12.50;99.90